Melmore, Ohio
Current Conditions -  °F | °C
As of 4:53 AM on Monday 22 Dec 2014 (Local Time) from KMNN Reporting Station
Haze Haze  
Wind Chill: 17°   Ceiling: Unl
Heat Index: 24°   Visibility: 5mi
Dew Point: 20°   Wind: 6mph
Humidity: 84%   Direction: 130°SE
Pressure: 30.07"   Gusts: NA
Location:  41.02°N, 83.11°W
Report Text: KMNN 220953Z AUTO 13005KT 5SM BR CLR M04/M07 A3007 RMK AO2 SLP197 T10441067 TSNO
Loading
Personal Weather Stations






























Interactive Weather Map New forecast layout! Learn more

10-Day Weather Forecast

Advertisements
Track Severe Weather on mobile